Time;durP1;ratioP1;P1;durP2;ratioP2;P2;SDS_P1;SDS_P2;PMS_P1;PMS_P2;Temp;Humidity;BMP_temperature;BMP_pressure;BME280_temperature;BME280_humidity;BME280_pressure;Samples;Min_cycle;Max_cycle;Signal;HPM_P1;HPM_P2
2021/01/20 00:02:10;;;;;;;;;;;2.20;99.90;;;;;;5051274;28;19913;-70
2021/01/20 00:04:36;;;;;;;;;;;2.30;99.90;;;;;;5052325;28;19913;-70
2021/01/20 00:07:02;;;;;;;;;;;2.20;99.90;;;;;;5052529;28;19959;-70
2021/01/20 00:09:28;;;;;;;;;;;2.20;99.90;;;;;;5052345;28;19958;-70
2021/01/20 00:11:54;;;;;;;;;;;2.30;99.90;;;;;;5052445;28;19983;-70
2021/01/20 00:14:20;;;;;;;;;;;2.30;99.90;;;;;;5052454;28;19912;-70
2021/01/20 00:16:46;;;;;;;;;;;2.30;99.90;;;;;;5052134;28;19928;-70
2021/01/20 00:19:12;;;;;;;;;;;2.30;99.90;;;;;;5052294;28;19913;-70
2021/01/20 00:21:38;;;;;;;;;;;2.30;99.90;;;;;;5050728;28;20285;-70
2021/01/20 00:24:04;;;;;;;;;;;2.30;99.90;;;;;;5052526;28;19920;-70
2021/01/20 00:26:30;;;;;;;;;;;2.30;99.90;;;;;;5051993;28;19920;-70
2021/01/20 00:28:56;;;;;;;;;;;2.30;99.90;;;;;;5051152;28;19920;-70
2021/01/20 00:31:22;;;;;;;;;;;2.30;99.90;;;;;;5051822;28;19971;-70
2021/01/20 00:33:48;;;;;;;;;;;2.30;99.90;;;;;;5051533;28;19917;-70
2021/01/20 00:36:14;;;;;;;;;;;2.30;99.90;;;;;;5052811;28;20280;-70
2021/01/20 00:38:40;;;;;;;;;;;2.30;99.90;;;;;;5050759;28;19959;-70
2021/01/20 00:41:06;;;;;;;;;;;2.30;99.90;;;;;;5051930;28;19958;-70
2021/01/20 00:43:32;;;;;;;;;;;2.30;99.90;;;;;;5051975;28;19912;-70
2021/01/20 00:45:58;;;;;;;;;;;2.20;99.90;;;;;;5052034;28;19917;-70
2021/01/20 00:48:24;;;;;;;;;;;2.20;99.90;;;;;;5051921;28;19915;-70
2021/01/20 00:50:56;;;;;;;;;;;2.30;99.90;;;;;;5052064;28;19920;-70
2021/01/20 00:53:22;;;;;;;;;;;2.30;99.90;;;;;;5035913;28;19916;-70
2021/01/20 00:55:48;;;;;;;;;;;2.30;99.90;;;;;;5056177;28;19917;-70
2021/01/20 00:58:14;;;;;;;;;;;2.30;99.90;;;;;;5055968;28;20333;-70
2021/01/20 01:00:40;;;;;;;;;;;2.20;99.90;;;;;;5054518;28;19908;-70
2021/01/20 01:03:06;;;;;;;;;;;2.20;99.90;;;;;;5054631;28;19909;-70
2021/01/20 01:05:32;;;;;;;;;;;2.20;99.90;;;;;;5055331;28;19960;-70
2021/01/20 01:07:58;;;;;;;;;;;2.20;99.90;;;;;;5055589;28;19916;-70
2021/01/20 01:10:24;;;;;;;;;;;2.30;99.90;;;;;;5054361;28;19909;-70
2021/01/20 01:12:50;;;;;;;;;;;2.30;99.90;;;;;;5055719;28;19912;-70
2021/01/20 01:15:16;;;;;;;;;;;2.30;99.90;;;;;;5054275;28;19917;-70
2021/01/20 01:17:42;;;;;;;;;;;2.30;99.90;;;;;;5055744;28;19920;-70
2021/01/20 01:20:08;;;;;;;;;;;2.30;99.90;;;;;;5055609;28;19916;-70
2021/01/20 01:22:34;;;;;;;;;;;2.20;99.90;;;;;;5055282;28;20278;-70
2021/01/20 01:25:00;;;;;;;;;;;2.20;99.90;;;;;;5055931;28;19913;-70
2021/01/20 01:27:26;;;;;;;;;;;2.20;99.90;;;;;;5055383;28;19913;-70
2021/01/20 01:29:52;;;;;;;;;;;2.20;99.90;;;;;;5055058;28;19956;-70
2021/01/20 01:32:18;;;;;;;;;;;2.20;99.90;;;;;;5055262;28;19927;-70
2021/01/20 01:34:44;;;;;;;;;;;2.20;99.90;;;;;;5054809;28;19915;-70
2021/01/20 01:37:10;;;;;;;;;;;2.20;99.90;;;;;;5055451;28;19909;-69
2021/01/20 01:39:36;;;;;;;;;;;2.30;99.90;;;;;;5055106;28;19944;-70
2021/01/20 01:42:04;;;;;;;;;;;2.30;99.90;;;;;;5054871;28;20388;-70
2021/01/20 01:44:32;;;;;;;;;;;2.30;99.90;;;;;;5054950;28;19909;-70
2021/01/20 01:46:59;;;;;;;;;;;2.30;99.90;;;;;;5055324;28;20392;-70
2021/01/20 01:49:24;;;;;;;;;;;2.30;99.90;;;;;;5053820;28;19916;-70
2021/01/20 01:51:51;;;;;;;;;;;2.30;99.90;;;;;;5054752;28;19921;-69
2021/01/20 01:54:17;;;;;;;;;;;2.20;99.90;;;;;;5053491;28;19913;-71
2021/01/20 01:56:43;;;;;;;;;;;2.20;99.90;;;;;;5053650;28;19909;-70
2021/01/20 01:59:09;;;;;;;;;;;2.20;99.90;;;;;;5055096;28;19911;-70
2021/01/20 02:01:35;;;;;;;;;;;2.20;99.90;;;;;;5054396;28;19912;-70
2021/01/20 02:04:01;;;;;;;;;;;2.20;99.90;;;;;;5054443;28;19909;-70
2021/01/20 02:06:26;;;;;;;;;;;2.20;99.90;;;;;;5054821;28;20001;-70
2021/01/20 02:08:52;;;;;;;;;;;2.20;99.90;;;;;;5054387;28;20350;-70
2021/01/20 02:11:21;;;;;;;;;;;2.20;99.90;;;;;;5054698;28;19924;-70
2021/01/20 02:14:08;;;;;;;;;;;2.20;99.90;;;;;;5054357;28;19928;-70
2021/01/20 02:16:35;;;;;;;;;;;2.20;99.90;;;;;;5053906;28;19908;-69
2021/01/20 02:19:01;;;;;;;;;;;2.20;99.90;;;;;;5053246;28;19916;-70
2021/01/20 02:21:33;;;;;;;;;;;2.20;99.90;;;;;;5053453;28;19909;-70
2021/01/20 02:23:59;;;;;;;;;;;2.20;99.90;;;;;;5054240;28;19923;-70
2021/01/20 02:26:28;;;;;;;;;;;2.20;99.90;;;;;;5053226;28;19915;-70
2021/01/20 02:28:56;;;;;;;;;;;2.30;99.90;;;;;;5052846;28;19924;-70
2021/01/20 02:31:22;;;;;;;;;;;2.20;99.90;;;;;;5054009;28;19917;-69
2021/01/20 02:33:49;;;;;;;;;;;2.30;99.90;;;;;;5052683;28;19920;-70
2021/01/20 02:36:15;;;;;;;;;;;2.20;99.90;;;;;;5035893;28;19912;-70
2021/01/20 02:38:41;;;;;;;;;;;2.20;99.90;;;;;;5052620;28;19959;-70
2021/01/20 02:41:08;;;;;;;;;;;2.20;99.90;;;;;;5052770;28;19940;-70
2021/01/20 02:43:34;;;;;;;;;;;2.20;99.90;;;;;;5054108;28;19908;-70
2021/01/20 02:45:59;;;;;;;;;;;2.20;99.90;;;;;;5053969;28;20289;-70
2021/01/20 02:48:25;;;;;;;;;;;2.20;99.90;;;;;;5054038;28;20335;-70
2021/01/20 02:50:51;;;;;;;;;;;2.20;99.90;;;;;;5053445;28;20364;-69
2021/01/20 02:53:19;;;;;;;;;;;2.20;99.90;;;;;;5053982;28;19936;-70
2021/01/20 02:55:47;;;;;;;;;;;2.20;99.90;;;;;;5052513;28;20354;-70
2021/01/20 02:58:28;;;;;;;;;;;2.20;99.90;;;;;;5052640;28;20366;-71
2021/01/20 03:00:54;;;;;;;;;;;2.30;99.90;;;;;;5053726;28;19919;-70
2021/01/20 03:03:20;;;;;;;;;;;2.20;99.90;;;;;;5051683;28;20289;-71
2021/01/20 03:05:46;;;;;;;;;;;2.30;99.90;;;;;;5052192;28;19909;-70
2021/01/20 03:08:12;;;;;;;;;;;2.30;99.90;;;;;;5052324;28;19909;-70
2021/01/20 03:10:38;;;;;;;;;;;2.30;99.90;;;;;;5052105;28;19913;-71
2021/01/20 03:13:05;;;;;;;;;;;2.30;99.90;;;;;;5053527;28;20000;-70
2021/01/20 03:15:37;;;;;;;;;;;2.30;99.90;;;;;;5051273;28;19908;-70
2021/01/20 03:18:03;;;;;;;;;;;2.30;99.90;;;;;;5052355;28;19909;-70
2021/01/20 03:20:29;;;;;;;;;;;2.30;99.90;;;;;;5053648;28;20315;-70
2021/01/20 03:22:56;;;;;;;;;;;2.30;99.90;;;;;;5051663;28;19908;-70
2021/01/20 03:25:22;;;;;;;;;;;2.30;99.90;;;;;;5052147;28;19909;-70
2021/01/20 03:27:48;;;;;;;;;;;2.30;99.90;;;;;;5052892;28;19912;-70
2021/01/20 03:30:14;;;;;;;;;;;2.30;99.90;;;;;;5044503;28;19928;-70
2021/01/20 03:32:40;;;;;;;;;;;2.30;99.90;;;;;;5052373;28;19920;-71
2021/01/20 03:35:06;;;;;;;;;;;2.30;99.90;;;;;;5052048;28;20332;-70
2021/01/20 03:37:32;;;;;;;;;;;2.30;99.90;;;;;;5053039;28;19917;-70
2021/01/20 03:39:58;;;;;;;;;;;2.30;99.90;;;;;;5052785;28;19917;-70
2021/01/20 03:42:24;;;;;;;;;;;2.30;99.90;;;;;;5052737;28;19920;-70
2021/01/20 03:44:50;;;;;;;;;;;2.30;99.90;;;;;;5051262;28;19913;-70
2021/01/20 03:47:16;;;;;;;;;;;2.30;99.90;;;;;;5052976;28;19916;-70
2021/01/20 03:49:42;;;;;;;;;;;2.30;99.90;;;;;;5052349;28;19928;-70
2021/01/20 03:52:08;;;;;;;;;;;2.30;99.90;;;;;;5052698;28;19921;-70
2021/01/20 03:54:35;;;;;;;;;;;2.30;99.90;;;;;;5052896;28;19962;-70
2021/01/20 03:57:02;;;;;;;;;;;2.30;99.90;;;;;;5052830;28;19913;-70
2021/01/20 03:59:28;;;;;;;;;;;2.30;99.90;;;;;;5051544;28;20110;-70
2021/01/20 04:01:54;;;;;;;;;;;2.30;99.90;;;;;;5052118;28;19980;-71
2021/01/20 04:04:20;;;;;;;;;;;2.30;99.90;;;;;;5052630;28;19912;-70
2021/01/20 04:06:46;;;;;;;;;;;2.30;99.90;;;;;;5052456;28;19954;-70
2021/01/20 04:09:12;;;;;;;;;;;2.30;99.90;;;;;;5052198;28;19966;-70
2021/01/20 04:11:38;;;;;;;;;;;2.30;99.90;;;;;;5052552;28;20374;-70
2021/01/20 04:14:04;;;;;;;;;;;2.30;99.90;;;;;;5052484;28;19963;-70
2021/01/20 04:16:29;;;;;;;;;;;2.30;99.90;;;;;;5051787;28;19920;-70
2021/01/20 04:18:55;;;;;;;;;;;2.30;99.90;;;;;;5051429;28;19909;-70
2021/01/20 04:21:21;;;;;;;;;;;2.30;99.90;;;;;;5051863;28;20293;-70
2021/01/20 04:23:47;;;;;;;;;;;2.30;99.90;;;;;;5052302;28;19912;-71
2021/01/20 04:26:13;;;;;;;;;;;2.30;99.90;;;;;;5051627;28;19912;-70
2021/01/20 04:28:39;;;;;;;;;;;2.40;99.90;;;;;;5044314;28;19928;-71
2021/01/20 04:31:05;;;;;;;;;;;2.40;99.90;;;;;;5053058;28;19976;-71
2021/01/20 04:33:31;;;;;;;;;;;2.30;99.90;;;;;;5052090;28;19915;-70
2021/01/20 04:35:57;;;;;;;;;;;2.30;99.90;;;;;;5052103;28;19909;-71
2021/01/20 04:38:23;;;;;;;;;;;2.40;99.90;;;;;;5051970;28;19912;-70
2021/01/20 04:40:55;;;;;;;;;;;2.40;99.90;;;;;;5050443;28;19923;-71
2021/01/20 04:43:21;;;;;;;;;;;2.40;99.90;;;;;;5051923;28;19913;-71
2021/01/20 04:45:50;;;;;;;;;;;2.40;99.90;;;;;;5050188;28;19908;-71
2021/01/20 04:48:16;;;;;;;;;;;2.40;99.90;;;;;;5052610;28;19909;-71
2021/01/20 04:50:43;;;;;;;;;;;2.40;99.90;;;;;;5051994;28;19915;-71
2021/01/20 04:53:09;;;;;;;;;;;2.30;99.90;;;;;;5050329;28;19920;-71
2021/01/20 04:55:36;;;;;;;;;;;2.30;99.90;;;;;;5043319;28;19913;-71
2021/01/20 04:58:02;;;;;;;;;;;2.40;99.90;;;;;;5049993;28;19909;-71
2021/01/20 05:00:28;;;;;;;;;;;2.30;99.90;;;;;;5036688;28;19918;-71
2021/01/20 05:02:54;;;;;;;;;;;2.40;99.90;;;;;;5050661;28;19970;-71
2021/01/20 05:05:20;;;;;;;;;;;2.40;99.90;;;;;;5050784;28;20033;-71
2021/01/20 05:07:47;;;;;;;;;;;2.40;99.90;;;;;;5041024;28;20309;-71
2021/01/20 05:10:13;;;;;;;;;;;2.30;99.90;;;;;;5047326;28;20246;-71
2021/01/20 05:12:39;;;;;;;;;;;2.30;99.90;;;;;;5052378;28;19924;-71
2021/01/20 05:15:06;;;;;;;;;;;2.30;99.90;;;;;;5052212;28;19905;-71
2021/01/20 05:17:32;;;;;;;;;;;2.40;99.90;;;;;;5050673;28;19916;-71
2021/01/20 05:19:58;;;;;;;;;;;2.30;99.90;;;;;;5051858;28;20376;-71
2021/01/20 05:22:24;;;;;;;;;;;2.30;99.90;;;;;;5051897;28;19909;-71
2021/01/20 05:25:03;;;;;;;;;;;2.30;99.90;;;;;;5051875;28;19917;-72
2021/01/20 05:27:31;;;;;;;;;;;2.30;99.90;;;;;;5052418;28;20396;-71
2021/01/20 05:30:02;;;;;;;;;;;2.30;99.90;;;;;;5050185;28;20259;-71
2021/01/20 05:32:28;;;;;;;;;;;2.30;99.90;;;;;;5050437;28;19924;-70
2021/01/20 05:35:01;;;;;;;;;;;2.30;99.90;;;;;;5051903;28;19908;-70
2021/01/20 05:37:27;;;;;;;;;;;2.30;99.90;;;;;;5051379;28;20372;-71
2021/01/20 05:40:06;;;;;;;;;;;2.30;99.90;;;;;;5055584;28;19908;-71
2021/01/20 05:42:41;;;;;;;;;;;2.30;99.90;;;;;;5054594;28;19905;-71
2021/01/20 05:45:07;;;;;;;;;;;2.30;99.90;;;;;;5055558;28;19916;-71
2021/01/20 05:47:33;;;;;;;;;;;2.30;99.90;;;;;;5053617;28;19915;-71
2021/01/20 05:50:06;;;;;;;;;;;2.30;99.90;;;;;;5055470;28;20030;-71
2021/01/20 05:52:32;;;;;;;;;;;2.30;99.90;;;;;;5053859;28;19975;-71
2021/01/20 05:54:58;;;;;;;;;;;2.30;99.90;;;;;;5053712;28;20034;-71
2021/01/20 05:57:28;;;;;;;;;;;2.30;99.90;;;;;;5054294;28;19936;-71
2021/01/20 05:59:54;;;;;;;;;;;2.40;99.90;;;;;;5055050;28;19908;-71
2021/01/20 06:02:20;;;;;;;;;;;2.30;99.90;;;;;;5055113;28;19916;-71
2021/01/20 06:04:46;;;;;;;;;;;2.40;99.90;;;;;;5053677;28;19905;-71
2021/01/20 06:07:13;;;;;;;;;;;2.40;99.90;;;;;;5054169;28;20015;-71
2021/01/20 06:09:39;;;;;;;;;;;2.40;99.90;;;;;;5054242;28;19932;-71
2021/01/20 06:12:08;;;;;;;;;;;2.40;99.90;;;;;;5053606;28;19931;-71
2021/01/20 06:14:35;;;;;;;;;;;2.40;99.90;;;;;;5055100;28;20269;-71
2021/01/20 06:17:02;;;;;;;;;;;2.40;99.90;;;;;;5054873;28;19905;-71
2021/01/20 06:19:28;;;;;;;;;;;2.40;99.90;;;;;;5055060;28;19905;-71
2021/01/20 06:21:54;;;;;;;;;;;2.40;99.90;;;;;;5036076;28;20388;-71
2021/01/20 06:24:36;;;;;;;;;;;2.40;99.90;;;;;;5052067;28;20308;-71
2021/01/20 06:27:12;;;;;;;;;;;2.40;99.90;;;;;;5053586;28;19905;-71
2021/01/20 06:29:38;;;;;;;;;;;2.40;99.90;;;;;;5053536;28;19924;-71
2021/01/20 06:32:04;;;;;;;;;;;2.40;99.90;;;;;;5052839;28;19917;-71
2021/01/20 06:34:30;;;;;;;;;;;2.40;99.90;;;;;;5054507;28;19905;-71
2021/01/20 06:36:56;;;;;;;;;;;2.40;99.90;;;;;;5054542;28;19905;-71
2021/01/20 06:39:32;;;;;;;;;;;2.40;99.90;;;;;;5054728;28;19956;-71
2021/01/20 06:41:58;;;;;;;;;;;2.40;99.90;;;;;;5054512;28;19912;-71
2021/01/20 06:44:24;;;;;;;;;;;2.40;99.90;;;;;;5054457;28;19909;-71
2021/01/20 06:46:56;;;;;;;;;;;2.40;99.90;;;;;;5054289;28;19913;-71
2021/01/20 06:49:22;;;;;;;;;;;2.40;99.90;;;;;;5054376;28;20265;-71
2021/01/20 06:52:07;;;;;;;;;;;2.40;99.90;;;;;;5058107;28;20094;-71
2021/01/20 06:54:43;;;;;;;;;;;2.40;99.90;;;;;;5054468;28;20377;-72
2021/01/20 06:57:28;;;;;;;;;;;2.40;99.90;;;;;;5052962;28;19908;-71
2021/01/20 07:00:09;;;;;;;;;;;2.40;99.90;;;;;;5054113;28;19912;-71
2021/01/20 07:02:35;;;;;;;;;;;2.30;99.90;;;;;;5054110;28;19905;-71
2021/01/20 07:05:03;;;;;;;;;;;2.30;99.90;;;;;;5053798;28;19908;-71
2021/01/20 07:07:48;;;;;;;;;;;2.30;99.90;;;;;;5054304;28;20365;-71
2021/01/20 07:10:14;;;;;;;;;;;2.30;99.90;;;;;;5054149;28;19927;-71
2021/01/20 07:12:40;;;;;;;;;;;2.30;99.90;;;;;;5052914;28;20358;-71
2021/01/20 07:15:06;;;;;;;;;;;2.30;99.90;;;;;;5052518;28;20738;-71
2021/01/20 07:17:35;;;;;;;;;;;2.30;99.90;;;;;;5052635;28;19909;-71
2021/01/20 07:20:01;;;;;;;;;;;2.30;99.90;;;;;;5051993;28;19908;-71
2021/01/20 07:22:27;;;;;;;;;;;2.30;99.90;;;;;;5048906;28;19916;-71
2021/01/20 07:24:53;;;;;;;;;;;2.30;99.90;;;;;;5052369;28;19916;-71
2021/01/20 07:27:19;;;;;;;;;;;2.30;99.90;;;;;;5051748;28;19912;-71
2021/01/20 07:29:47;;;;;;;;;;;2.30;99.90;;;;;;5052129;28;19921;-71
2021/01/20 07:32:12;;;;;;;;;;;2.30;99.90;;;;;;5051993;28;19920;-71
2021/01/20 07:34:39;;;;;;;;;;;2.30;99.90;;;;;;5051657;28;19954;-71
2021/01/20 07:37:12;;;;;;;;;;;2.40;99.90;;;;;;5051837;28;19908;-71
2021/01/20 07:39:38;;;;;;;;;;;2.30;99.90;;;;;;5051469;28;19920;-71
2021/01/20 07:42:05;;;;;;;;;;;2.30;99.90;;;;;;5050522;28;19940;-71
2021/01/20 07:44:31;;;;;;;;;;;2.30;99.90;;;;;;5052665;28;20290;-71
2021/01/20 07:47:00;;;;;;;;;;;2.30;99.90;;;;;;5051257;28;20332;-71
2021/01/20 07:49:26;;;;;;;;;;;2.30;99.90;;;;;;5044878;28;19916;-71
2021/01/20 07:51:58;;;;;;;;;;;2.30;99.90;;;;;;5052010;28;19923;-71
2021/01/20 07:54:24;;;;;;;;;;;2.30;99.90;;;;;;5050754;28;20381;-71
2021/01/20 07:56:50;;;;;;;;;;;2.40;99.90;;;;;;5050514;28;19909;-71
2021/01/20 07:59:17;;;;;;;;;;;2.40;99.90;;;;;;5052049;28;19913;-71
2021/01/20 08:01:42;;;;;;;;;;;2.40;99.90;;;;;;5054638;28;19923;-71
2021/01/20 08:04:27;;;;;;;;;;;2.30;99.90;;;;;;5052056;28;19916;-71
2021/01/20 08:06:53;;;;;;;;;;;2.40;99.90;;;;;;5051056;28;19912;-71
2021/01/20 08:09:21;;;;;;;;;;;2.30;99.90;;;;;;5051956;28;19962;-71
2021/01/20 08:11:47;;;;;;;;;;;2.30;99.90;;;;;;5051981;28;19913;-70
2021/01/20 08:14:13;;;;;;;;;;;2.40;99.90;;;;;;5050706;28;19943;-70
2021/01/20 08:16:39;;;;;;;;;;;2.40;99.90;;;;;;5032917;28;20342;-71
2021/01/20 08:19:05;;;;;;;;;;;2.40;99.90;;;;;;5052122;28;19913;-71
2021/01/20 08:21:32;;;;;;;;;;;2.40;99.90;;;;;;5032823;28;20309;-70
2021/01/20 08:23:59;;;;;;;;;;;2.40;99.90;;;;;;5041636;28;19913;-70
2021/01/20 08:26:26;;;;;;;;;;;2.40;99.90;;;;;;5051124;28;19916;-70
2021/01/20 08:29:21;;;;;;;;;;;2.40;99.90;;;;;;5050542;28;19923;-70
2021/01/20 08:32:04;;;;;;;;;;;2.40;99.90;;;;;;5050736;28;19931;-70
2021/01/20 08:34:33;;;;;;;;;;;2.40;99.90;;;;;;5050318;28;19913;-70
2021/01/20 08:37:03;;;;;;;;;;;2.40;99.90;;;;;;5051535;28;19915;-70
2021/01/20 08:39:31;;;;;;;;;;;2.40;99.90;;;;;;5051889;28;19920;-71
2021/01/20 08:42:21;;;;;;;;;;;2.40;99.90;;;;;;5052050;28;19919;-70
2021/01/20 08:45:00;;;;;;;;;;;2.40;99.90;;;;;;5048216;28;20346;-70
2021/01/20 08:47:26;;;;;;;;;;;2.40;99.90;;;;;;5043822;28;19913;-70
2021/01/20 08:49:53;;;;;;;;;;;2.40;99.90;;;;;;5051950;28;20004;-70
2021/01/20 08:52:21;;;;;;;;;;;2.40;99.90;;;;;;5051586;28;20396;-71
2021/01/20 08:54:50;;;;;;;;;;;2.40;99.90;;;;;;5051136;28;20349;-70
2021/01/20 08:57:20;;;;;;;;;;;2.50;99.90;;;;;;5058251;28;20286;-70
2021/01/20 08:59:50;;;;;;;;;;;2.50;99.90;;;;;;5052622;28;20273;-70
2021/01/20 09:02:16;;;;;;;;;;;2.50;99.90;;;;;;5057570;28;19915;-70
2021/01/20 09:04:46;;;;;;;;;;;2.50;99.90;;;;;;5056428;28;19908;-70
2021/01/20 09:07:12;;;;;;;;;;;2.50;99.90;;;;;;5059969;28;19913;-70
2021/01/20 09:09:38;;;;;;;;;;;2.50;99.90;;;;;;5057765;28;19920;-70
2021/01/20 09:12:05;;;;;;;;;;;2.50;99.90;;;;;;5052038;28;19921;-70
2021/01/20 09:14:31;;;;;;;;;;;2.60;99.90;;;;;;5055633;28;19913;-71
2021/01/20 09:16:59;;;;;;;;;;;2.60;99.90;;;;;;5062361;28;19919;-70
2021/01/20 09:19:25;;;;;;;;;;;2.60;99.90;;;;;;5058315;28;20289;-70
2021/01/20 09:21:51;;;;;;;;;;;2.60;99.90;;;;;;5055527;28;19913;-70
2021/01/20 09:24:17;;;;;;;;;;;2.60;99.90;;;;;;5054658;28;19967;-70
2021/01/20 09:26:43;;;;;;;;;;;2.60;99.90;;;;;;5057463;28;19920;-70
2021/01/20 09:29:09;;;;;;;;;;;2.70;99.90;;;;;;5054967;28;19928;-70
2021/01/20 09:31:35;;;;;;;;;;;2.70;99.90;;;;;;5054819;28;19917;-70
2021/01/20 09:34:01;;;;;;;;;;;2.80;99.90;;;;;;5055086;28;20285;-70
2021/01/20 09:36:27;;;;;;;;;;;2.80;99.90;;;;;;5055242;28;19913;-70
2021/01/20 09:38:53;;;;;;;;;;;2.70;99.90;;;;;;5054431;28;19916;-71
2021/01/20 09:41:19;;;;;;;;;;;2.70;99.90;;;;;;5060091;28;19917;-70
2021/01/20 09:43:45;;;;;;;;;;;2.80;99.90;;;;;;5061924;28;19912;-70
2021/01/20 09:46:11;;;;;;;;;;;2.80;99.90;;;;;;5060477;28;19912;-70
2021/01/20 09:48:37;;;;;;;;;;;2.80;99.90;;;;;;5062925;28;20396;-71
2021/01/20 09:51:03;;;;;;;;;;;2.80;99.90;;;;;;5060353;28;19917;-70
2021/01/20 09:53:29;;;;;;;;;;;2.80;99.90;;;;;;5059340;28;19924;-70
2021/01/20 09:55:55;;;;;;;;;;;2.90;99.90;;;;;;5062302;28;19908;-70
2021/01/20 09:58:21;;;;;;;;;;;2.90;99.90;;;;;;5065043;28;19920;-70
2021/01/20 10:00:47;;;;;;;;;;;2.90;99.90;;;;;;5059348;28;19913;-71
2021/01/20 10:03:13;;;;;;;;;;;2.90;99.90;;;;;;5054233;28;19913;-70
2021/01/20 10:05:39;;;;;;;;;;;3.00;99.90;;;;;;5054626;28;20389;-70
2021/01/20 10:08:05;;;;;;;;;;;3.00;99.90;;;;;;5054124;28;19912;-70
2021/01/20 10:10:31;;;;;;;;;;;3.00;99.90;;;;;;5056854;28;19920;-70
2021/01/20 10:12:57;;;;;;;;;;;3.10;99.90;;;;;;5060108;28;19924;-70
2021/01/20 10:15:23;;;;;;;;;;;3.20;99.90;;;;;;5063376;28;19923;-70
2021/01/20 10:17:51;;;;;;;;;;;3.20;99.90;;;;;;5064522;28;20325;-70
2021/01/20 10:20:17;;;;;;;;;;;3.10;99.90;;;;;;5058136;28;20289;-70
2021/01/20 10:22:43;;;;;;;;;;;3.20;99.90;;;;;;5055685;28;20281;-71
2021/01/20 10:25:10;;;;;;;;;;;3.20;99.90;;;;;;5058313;28;19921;-71
2021/01/20 10:27:36;;;;;;;;;;;3.20;99.90;;;;;;5054236;28;20368;-71
2021/01/20 10:30:02;;;;;;;;;;;3.20;99.90;;;;;;5053883;28;20003;-71
2021/01/20 10:32:28;;;;;;;;;;;3.20;99.90;;;;;;5052192;28;19917;-71
2021/01/20 10:34:54;;;;;;;;;;;3.30;99.90;;;;;;5054185;28;20326;-70
2021/01/20 10:37:20;;;;;;;;;;;3.30;99.90;;;;;;5053390;28;19939;-71
2021/01/20 10:39:46;;;;;;;;;;;3.30;99.90;;;;;;5054227;28;20361;-71
2021/01/20 10:42:12;;;;;;;;;;;3.30;99.90;;;;;;5053114;28;19966;-71
2021/01/20 10:44:38;;;;;;;;;;;3.40;99.90;;;;;;5053732;28;20366;-71
2021/01/20 10:47:04;;;;;;;;;;;3.40;99.90;;;;;;5053871;28;19959;-71
2021/01/20 10:49:30;;;;;;;;;;;3.40;99.90;;;;;;5052854;28;19974;-72
2021/01/20 10:51:56;;;;;;;;;;;3.40;99.90;;;;;;5052694;28;19935;-72
2021/01/20 10:54:22;;;;;;;;;;;3.50;99.90;;;;;;5054008;28;19917;-73
2021/01/20 10:56:48;;;;;;;;;;;3.60;99.90;;;;;;5053710;28;19913;-74
2021/01/20 10:59:14;;;;;;;;;;;3.60;99.90;;;;;;5053615;28;19912;-74
2021/01/20 11:01:40;;;;;;;;;;;3.70;99.90;;;;;;5053222;28;19920;-75
2021/01/20 11:04:06;;;;;;;;;;;3.60;99.90;;;;;;5056425;28;19920;-74
2021/01/20 11:06:32;;;;;;;;;;;3.60;99.90;;;;;;5060236;28;19913;-76
2021/01/20 11:08:59;;;;;;;;;;;3.70;99.90;;;;;;5058587;28;20366;-76
2021/01/20 11:11:26;;;;;;;;;;;3.70;99.90;;;;;;5055171;28;19912;-75
2021/01/20 11:13:52;;;;;;;;;;;3.70;99.90;;;;;;5062851;28;19927;-76
2021/01/20 11:16:18;;;;;;;;;;;3.70;99.90;;;;;;5059212;28;19948;-77
2021/01/20 11:18:44;;;;;;;;;;;3.80;99.90;;;;;;5056869;28;19916;-76
2021/01/20 11:21:14;;;;;;;;;;;3.80;99.90;;;;;;5057461;28;19916;-77
2021/01/20 11:23:45;;;;;;;;;;;3.90;99.90;;;;;;5055797;28;20368;-79
2021/01/20 11:26:11;;;;;;;;;;;3.90;99.90;;;;;;5040293;28;19909;-77
2021/01/20 11:28:37;;;;;;;;;;;3.90;99.90;;;;;;5037074;28;19975;-80
2021/01/20 11:31:03;;;;;;;;;;;3.90;99.90;;;;;;5040254;28;20309;-79
2021/01/20 11:33:29;;;;;;;;;;;4.00;99.90;;;;;;5041533;28;19927;-78
2021/01/20 11:35:55;;;;;;;;;;;4.10;99.90;;;;;;5046121;28;19912;-78
2021/01/20 11:38:21;;;;;;;;;;;4.10;99.90;;;;;;5040576;28;19912;-81
2021/01/20 11:40:47;;;;;;;;;;;4.20;99.90;;;;;;5043743;28;19917;-79
2021/01/20 11:43:13;;;;;;;;;;;4.20;99.90;;;;;;5050227;28;19920;-80
2021/01/20 11:45:39;;;;;;;;;;;4.30;99.90;;;;;;5051093;28;19962;-80
2021/01/20 11:48:05;;;;;;;;;;;4.30;99.90;;;;;;5042536;28;19919;-80
2021/01/20 11:50:32;;;;;;;;;;;4.40;99.90;;;;;;5046809;28;19924;-79
2021/01/20 11:52:57;;;;;;;;;;;4.40;99.90;;;;;;5043803;28;20274;-79
2021/01/20 11:55:23;;;;;;;;;;;4.40;99.90;;;;;;5044383;28;19959;-77
2021/01/20 11:57:49;;;;;;;;;;;4.40;99.90;;;;;;5044547;28;20007;-78
2021/01/20 12:00:16;;;;;;;;;;;4.50;99.90;;;;;;5041786;28;20325;-78
2021/01/20 12:02:42;;;;;;;;;;;4.50;99.90;;;;;;5042314;28;19909;-78
2021/01/20 12:05:09;;;;;;;;;;;4.60;99.90;;;;;;5039606;28;19909;-79
2021/01/20 12:07:35;;;;;;;;;;;4.50;99.90;;;;;;5044577;28;19920;-79
2021/01/20 12:10:01;;;;;;;;;;;4.50;99.90;;;;;;5042853;28;19913;-77
2021/01/20 12:12:27;;;;;;;;;;;4.60;99.90;;;;;;5043246;28;19905;-79
2021/01/20 12:14:53;;;;;;;;;;;4.60;99.90;;;;;;5049421;28;19940;-79
2021/01/20 12:17:19;;;;;;;;;;;4.60;99.90;;;;;;5049606;28;19909;-79
2021/01/20 12:19:45;;;;;;;;;;;4.60;99.90;;;;;;5057342;28;19913;-80
2021/01/20 12:22:11;;;;;;;;;;;4.70;99.90;;;;;;5056413;28;19909;-80
2021/01/20 12:24:37;;;;;;;;;;;4.70;99.90;;;;;;5057781;28;19916;-80
2021/01/20 12:27:03;;;;;;;;;;;4.70;99.90;;;;;;5057292;28;19979;-80
2021/01/20 12:29:29;;;;;;;;;;;4.70;99.90;;;;;;5054399;28;19972;-80
2021/01/20 12:31:55;;;;;;;;;;;4.70;99.90;;;;;;5052250;28;19919;-80
2021/01/20 12:34:20;;;;;;;;;;;4.70;99.90;;;;;;5053902;28;19927;-81
2021/01/20 12:36:47;;;;;;;;;;;4.70;99.90;;;;;;5058302;28;19913;-80
2021/01/20 12:39:13;;;;;;;;;;;4.80;99.90;;;;;;5051205;28;19908;-80
2021/01/20 12:41:39;;;;;;;;;;;4.80;99.90;;;;;;5056458;28;19909;-80
2021/01/20 12:44:05;;;;;;;;;;;4.80;99.90;;;;;;5057027;28;19916;-80
2021/01/20 12:46:31;;;;;;;;;;;4.80;99.90;;;;;;5059732;28;19927;-80
2021/01/20 12:48:57;;;;;;;;;;;4.80;99.90;;;;;;5059167;28;20316;-78
2021/01/20 12:51:23;;;;;;;;;;;4.80;99.90;;;;;;5061496;28;19916;-80
2021/01/20 12:53:49;;;;;;;;;;;4.80;99.90;;;;;;5060456;28;19924;-82
2021/01/20 12:56:15;;;;;;;;;;;4.90;99.90;;;;;;5058951;28;20290;-80
2021/01/20 12:58:41;;;;;;;;;;;4.90;99.90;;;;;;5056357;28;19952;-78
2021/01/20 13:01:07;;;;;;;;;;;4.90;99.90;;;;;;5061510;28;19970;-79
2021/01/20 13:03:33;;;;;;;;;;;4.90;99.90;;;;;;5061888;28;19932;-78
2021/01/20 13:05:59;;;;;;;;;;;4.90;99.90;;;;;;5066037;28;20323;-77
2021/01/20 13:08:25;;;;;;;;;;;5.00;99.90;;;;;;5054239;28;20297;-77
2021/01/20 13:10:51;;;;;;;;;;;5.00;99.90;;;;;;5037916;28;20289;-77
2021/01/20 13:13:17;;;;;;;;;;;5.00;99.90;;;;;;5057458;28;19917;-76
2021/01/20 13:15:44;;;;;;;;;;;5.10;99.90;;;;;;5053848;28;19909;-76
2021/01/20 13:18:10;;;;;;;;;;;5.20;99.90;;;;;;5054134;28;19912;-76
2021/01/20 13:20:36;;;;;;;;;;;5.20;99.90;;;;;;5055763;28;19919;-76
2021/01/20 13:23:02;;;;;;;;;;;5.20;99.90;;;;;;5053530;28;19919;-77
2021/01/20 13:25:28;;;;;;;;;;;5.20;99.90;;;;;;5055326;28;19912;-78
2021/01/20 13:27:54;;;;;;;;;;;5.20;99.90;;;;;;5056778;28;19913;-78
2021/01/20 13:30:20;;;;;;;;;;;5.20;99.90;;;;;;5057797;28;19920;-78
2021/01/20 13:32:46;;;;;;;;;;;5.20;99.90;;;;;;5053365;28;19932;-79
2021/01/20 13:35:12;;;;;;;;;;;5.10;99.90;;;;;;5055105;28;19916;-79
2021/01/20 13:37:38;;;;;;;;;;;5.10;99.90;;;;;;5053196;28;19920;-78
2021/01/20 13:40:04;;;;;;;;;;;5.20;99.90;;;;;;5055434;28;19935;-77
2021/01/20 13:42:30;;;;;;;;;;;5.10;99.90;;;;;;5053272;28;19913;-76
2021/01/20 13:44:56;;;;;;;;;;;5.20;99.90;;;;;;5054692;28;19956;-75
2021/01/20 13:47:22;;;;;;;;;;;5.30;99.90;;;;;;5053850;28;19971;-76
2021/01/20 13:49:48;;;;;;;;;;;5.30;99.90;;;;;;5056693;28;19909;-76
2021/01/20 13:52:14;;;;;;;;;;;5.30;99.90;;;;;;5054513;28;19943;-76
2021/01/20 13:54:40;;;;;;;;;;;5.30;99.90;;;;;;5060361;28;19929;-77
2021/01/20 13:57:06;;;;;;;;;;;5.30;99.90;;;;;;5062937;28;19919;-75
2021/01/20 13:59:35;;;;;;;;;;;5.40;99.90;;;;;;5059671;28;19916;-76
2021/01/20 14:02:04;;;;;;;;;;;5.50;99.90;;;;;;5060944;28;19912;-75
2021/01/20 14:04:31;;;;;;;;;;;5.50;99.90;;;;;;5055176;28;19912;-76
2021/01/20 14:06:59;;;;;;;;;;;5.50;99.90;;;;;;5054540;28;19913;-76
2021/01/20 14:09:25;;;;;;;;;;;5.60;99.90;;;;;;5053592;28;19917;-76
2021/01/20 14:11:51;;;;;;;;;;;5.60;99.90;;;;;;5059069;28;19916;-75
2021/01/20 14:14:17;;;;;;;;;;;5.60;99.90;;;;;;5063263;28;19927;-76
2021/01/20 14:16:43;;;;;;;;;;;5.60;99.90;;;;;;5054655;28;19982;-75
2021/01/20 14:19:09;;;;;;;;;;;5.60;99.90;;;;;;5051788;28;19919;-77
2021/01/20 14:21:35;;;;;;;;;;;5.60;99.90;;;;;;5053264;28;19908;-75
2021/01/20 14:24:01;;;;;;;;;;;5.60;99.90;;;;;;5054325;28;20003;-76
2021/01/20 14:26:27;;;;;;;;;;;5.60;99.90;;;;;;5053638;28;19916;-76
2021/01/20 14:28:53;;;;;;;;;;;5.60;99.90;;;;;;5053693;28;19978;-76
2021/01/20 14:31:22;;;;;;;;;;;5.60;99.90;;;;;;5053458;28;19920;-77